sensor_id;sensor_type;location;lat;lon;timestamp;temperature;humidity
50907;DHT22;36882;27.680;85.304;2022-10-13T00:00:13;20.70;99.90
50907;DHT22;36882;27.680;85.304;2022-10-13T00:02:43;20.60;99.90
50907;DHT22;36882;27.680;85.304;2022-10-13T00:05:13;20.60;99.90
50907;DHT22;36882;27.680;85.304;2022-10-13T00:07:42;20.60;99.90
50907;DHT22;36882;27.680;85.304;2022-10-13T00:10:12;20.60;99.90
50907;DHT22;36882;27.680;85.304;2022-10-13T00:12:42;20.50;99.90
50907;DHT22;36882;27.680;85.304;2022-10-13T00:15:12;20.50;99.90
50907;DHT22;36882;27.680;85.304;2022-10-13T00:17:42;20.60;99.90
50907;DHT22;36882;27.680;85.304;2022-10-13T00:20:12;20.60;99.90
50907;DHT22;36882;27.680;85.304;2022-10-13T00:22:42;20.60;99.90
50907;DHT22;36882;27.680;85.304;2022-10-13T00:25:12;20.60;99.90
50907;DHT22;36882;27.680;85.304;2022-10-13T00:27:42;20.60;99.90
50907;DHT22;36882;27.680;85.304;2022-10-13T00:30:12;20.50;99.90
50907;DHT22;36882;27.680;85.304;2022-10-13T00:32:42;20.50;99.90
50907;DHT22;36882;27.680;85.304;2022-10-13T00:35:11;20.50;99.90
50907;DHT22;36882;27.680;85.304;2022-10-13T00:37:41;20.50;99.90
50907;DHT22;36882;27.680;85.304;2022-10-13T00:40:11;20.50;99.90
50907;DHT22;36882;27.680;85.304;2022-10-13T00:42:42;20.50;99.90
50907;DHT22;36882;27.680;85.304;2022-10-13T00:45:31;20.50;99.90
50907;DHT22;36882;27.680;85.304;2022-10-13T00:48:01;20.60;99.90
50907;DHT22;36882;27.680;85.304;2022-10-13T00:50:32;20.60;99.90
50907;DHT22;36882;27.680;85.304;2022-10-13T00:53:04;20.70;99.90
50907;DHT22;36882;27.680;85.304;2022-10-13T00:55:37;20.70;99.90
50907;DHT22;36882;27.680;85.304;2022-10-13T00:58:10;20.80;99.90
50907;DHT22;36882;27.680;85.304;2022-10-13T01:00:45;20.80;99.90
50907;DHT22;36882;27.680;85.304;2022-10-13T01:03:18;20.80;99.90
50907;DHT22;36882;27.680;85.304;2022-10-13T01:05:50;20.90;99.90
50907;DHT22;36882;27.680;85.304;2022-10-13T01:08:21;20.90;99.90
50907;DHT22;36882;27.680;85.304;2022-10-13T01:17:47;20.90;99.90
50907;DHT22;36882;27.680;85.304;2022-10-13T01:32:20;20.90;99.90
50907;DHT22;36882;27.680;85.304;2022-10-13T01:35:20;20.90;99.90
50907;DHT22;36882;27.680;85.304;2022-10-13T01:38:06;20.90;99.90
50907;DHT22;36882;27.680;85.304;2022-10-13T01:40:49;20.90;99.90
50907;DHT22;36882;27.680;85.304;2022-10-13T01:43:35;21.00;99.90
50907;DHT22;36882;27.680;85.304;2022-10-13T01:46:15;21.10;99.90
50907;DHT22;36882;27.680;85.304;2022-10-13T01:48:48;21.20;99.90
50907;DHT22;36882;27.680;85.304;2022-10-13T01:51:21;21.30;99.90
50907;DHT22;36882;27.680;85.304;2022-10-13T01:53:52;21.30;99.90
50907;DHT22;36882;27.680;85.304;2022-10-13T01:56:22;21.50;99.90
50907;DHT22;36882;27.680;85.304;2022-10-13T01:58:53;21.60;99.90
50907;DHT22;36882;27.680;85.304;2022-10-13T02:07:22;22.20;98.70
50907;DHT22;36882;27.680;85.304;2022-10-13T02:10:01;22.40;98.80
50907;DHT22;36882;27.680;85.304;2022-10-13T02:13:13;22.50;98.10
50907;DHT22;36882;27.680;85.304;2022-10-13T02:15:36;22.60;98.20
50907;DHT22;36882;27.680;85.304;2022-10-13T02:18:10;22.70;98.10
50907;DHT22;36882;27.680;85.304;2022-10-13T02:20:42;22.80;98.00
50907;DHT22;36882;27.680;85.304;2022-10-13T02:23:14;22.90;97.40
50907;DHT22;36882;27.680;85.304;2022-10-13T02:25:46;23.00;96.90
50907;DHT22;36882;27.680;85.304;2022-10-13T02:28:18;22.90;96.90
50907;DHT22;36882;27.680;85.304;2022-10-13T02:30:48;23.10;96.90
50907;DHT22;36882;27.680;85.304;2022-10-13T02:33:19;23.20;97.00
50907;DHT22;36882;27.680;85.304;2022-10-13T02:35:49;23.30;96.70
50907;DHT22;36882;27.680;85.304;2022-10-13T02:38:19;23.40;96.50
50907;DHT22;36882;27.680;85.304;2022-10-13T02:40:49;23.40;96.50
50907;DHT22;36882;27.680;85.304;2022-10-13T02:43:19;23.50;96.10
50907;DHT22;36882;27.680;85.304;2022-10-13T02:45:48;23.30;96.00
50907;DHT22;36882;27.680;85.304;2022-10-13T02:48:18;23.40;96.20
50907;DHT22;36882;27.680;85.304;2022-10-13T02:50:48;23.50;96.10
50907;DHT22;36882;27.680;85.304;2022-10-13T02:53:18;23.60;96.40
50907;DHT22;36882;27.680;85.304;2022-10-13T02:55:48;23.80;95.90
50907;DHT22;36882;27.680;85.304;2022-10-13T02:58:18;23.80;95.70
50907;DHT22;36882;27.680;85.304;2022-10-13T03:00:48;23.90;95.70
50907;DHT22;36882;27.680;85.304;2022-10-13T03:03:18;23.90;95.60
50907;DHT22;36882;27.680;85.304;2022-10-13T03:05:47;24.00;95.50
50907;DHT22;36882;27.680;85.304;2022-10-13T03:08:17;24.00;95.80
50907;DHT22;36882;27.680;85.304;2022-10-13T03:10:47;24.00;95.60
50907;DHT22;36882;27.680;85.304;2022-10-13T03:13:16;24.10;95.20
50907;DHT22;36882;27.680;85.304;2022-10-13T03:15:46;24.00;94.80
50907;DHT22;36882;27.680;85.304;2022-10-13T03:18:16;24.10;95.10
50907;DHT22;36882;27.680;85.304;2022-10-13T03:20:55;24.10;95.30
50907;DHT22;36882;27.680;85.304;2022-10-13T03:23:25;24.20;95.20
50907;DHT22;36882;27.680;85.304;2022-10-13T03:25:56;24.20;95.10
50907;DHT22;36882;27.680;85.304;2022-10-13T03:28:25;24.20;94.50
50907;DHT22;36882;27.680;85.304;2022-10-13T03:31:05;24.20;94.20
50907;DHT22;36882;27.680;85.304;2022-10-13T03:33:36;24.20;94.40
50907;DHT22;36882;27.680;85.304;2022-10-13T03:36:05;24.20;93.30
50907;DHT22;36882;27.680;85.304;2022-10-13T03:38:35;24.20;93.00
50907;DHT22;36882;27.680;85.304;2022-10-13T03:41:06;24.20;93.90
50907;DHT22;36882;27.680;85.304;2022-10-13T03:43:37;24.20;94.20
50907;DHT22;36882;27.680;85.304;2022-10-13T03:46:09;24.30;94.00
50907;DHT22;36882;27.680;85.304;2022-10-13T03:48:39;24.20;93.90
50907;DHT22;36882;27.680;85.304;2022-10-13T03:51:13;24.20;93.90
50907;DHT22;36882;27.680;85.304;2022-10-13T03:53:44;24.40;94.30
50907;DHT22;36882;27.680;85.304;2022-10-13T03:56:18;24.50;94.40
50907;DHT22;36882;27.680;85.304;2022-10-13T03:58:48;24.70;93.90
50907;DHT22;36882;27.680;85.304;2022-10-13T04:01:27;24.80;93.40
50907;DHT22;36882;27.680;85.304;2022-10-13T04:03:59;24.80;93.10
50907;DHT22;36882;27.680;85.304;2022-10-13T04:06:31;24.90;92.20
50907;DHT22;36882;27.680;85.304;2022-10-13T04:09:01;24.80;92.80
50907;DHT22;36882;27.680;85.304;2022-10-13T04:11:32;24.90;93.30
50907;DHT22;36882;27.680;85.304;2022-10-13T04:14:03;25.00;92.70
50907;DHT22;36882;27.680;85.304;2022-10-13T04:16:33;25.10;92.30
50907;DHT22;36882;27.680;85.304;2022-10-13T04:19:04;25.20;91.60
50907;DHT22;36882;27.680;85.304;2022-10-13T04:21:35;25.20;92.30
50907;DHT22;36882;27.680;85.304;2022-10-13T04:24:06;25.30;91.70
50907;DHT22;36882;27.680;85.304;2022-10-13T04:26:36;25.30;91.00
50907;DHT22;36882;27.680;85.304;2022-10-13T04:29:09;25.30;91.30
50907;DHT22;36882;27.680;85.304;2022-10-13T04:31:40;25.40;92.20
50907;DHT22;36882;27.680;85.304;2022-10-13T04:34:14;25.40;92.10
50907;DHT22;36882;27.680;85.304;2022-10-13T04:36:49;25.50;91.90
50907;DHT22;36882;27.680;85.304;2022-10-13T04:39:20;25.50;91.70
50907;DHT22;36882;27.680;85.304;2022-10-13T04:41:50;25.60;91.50
50907;DHT22;36882;27.680;85.304;2022-10-13T04:44:21;25.80;91.50
50907;DHT22;36882;27.680;85.304;2022-10-13T04:46:51;25.70;91.70
50907;DHT22;36882;27.680;85.304;2022-10-13T04:49:22;25.70;92.10
50907;DHT22;36882;27.680;85.304;2022-10-13T04:51:53;25.70;92.20
50907;DHT22;36882;27.680;85.304;2022-10-13T04:54:23;25.60;92.00
50907;DHT22;36882;27.680;85.304;2022-10-13T04:56:54;25.60;92.10
50907;DHT22;36882;27.680;85.304;2022-10-13T04:59:25;25.50;92.30
50907;DHT22;36882;27.680;85.304;2022-10-13T05:01:55;25.60;92.20
50907;DHT22;36882;27.680;85.304;2022-10-13T05:04:26;25.50;91.90
50907;DHT22;36882;27.680;85.304;2022-10-13T05:06:56;25.70;90.40
50907;DHT22;36882;27.680;85.304;2022-10-13T05:09:44;25.70;90.60
50907;DHT22;36882;27.680;85.304;2022-10-13T05:12:15;25.80;91.30
50907;DHT22;36882;27.680;85.304;2022-10-13T05:14:46;26.00;90.70
50907;DHT22;36882;27.680;85.304;2022-10-13T05:17:16;26.10;90.80
50907;DHT22;36882;27.680;85.304;2022-10-13T05:19:48;26.10;90.70
50907;DHT22;36882;27.680;85.304;2022-10-13T05:22:18;26.30;90.30
50907;DHT22;36882;27.680;85.304;2022-10-13T05:24:49;26.40;91.10
50907;DHT22;36882;27.680;85.304;2022-10-13T05:27:20;26.30;90.10
50907;DHT22;36882;27.680;85.304;2022-10-13T05:29:51;26.40;88.40
50907;DHT22;36882;27.680;85.304;2022-10-13T05:32:21;26.40;89.30
50907;DHT22;36882;27.680;85.304;2022-10-13T05:34:52;26.50;89.60
50907;DHT22;36882;27.680;85.304;2022-10-13T05:37:22;26.50;88.20
50907;DHT22;36882;27.680;85.304;2022-10-13T05:39:53;26.50;89.30
50907;DHT22;36882;27.680;85.304;2022-10-13T05:42:23;26.50;89.90
50907;DHT22;36882;27.680;85.304;2022-10-13T05:44:54;26.50;88.50
50907;DHT22;36882;27.680;85.304;2022-10-13T05:47:25;26.40;88.80
50907;DHT22;36882;27.680;85.304;2022-10-13T05:49:56;26.40;90.10
50907;DHT22;36882;27.680;85.304;2022-10-13T05:52:28;26.40;90.00
50907;DHT22;36882;27.680;85.304;2022-10-13T05:55:02;26.40;89.90
50907;DHT22;36882;27.680;85.304;2022-10-13T05:57:36;26.50;89.80
50907;DHT22;36882;27.680;85.304;2022-10-13T06:00:11;26.70;87.10
50907;DHT22;36882;27.680;85.304;2022-10-13T06:02:51;26.70;87.40
50907;DHT22;36882;27.680;85.304;2022-10-13T06:05:25;26.40;87.20
50907;DHT22;36882;27.680;85.304;2022-10-13T06:07:56;26.20;87.70
50907;DHT22;36882;27.680;85.304;2022-10-13T06:10:27;26.10;88.20
50907;DHT22;36882;27.680;85.304;2022-10-13T06:12:58;26.20;88.80
50907;DHT22;36882;27.680;85.304;2022-10-13T06:15:28;26.30;89.00
50907;DHT22;36882;27.680;85.304;2022-10-13T06:17:58;26.30;88.50
50907;DHT22;36882;27.680;85.304;2022-10-13T06:20:29;26.50;89.60
50907;DHT22;36882;27.680;85.304;2022-10-13T06:23:00;26.70;89.50
50907;DHT22;36882;27.680;85.304;2022-10-13T06:25:30;27.00;86.00
50907;DHT22;36882;27.680;85.304;2022-10-13T06:28:01;27.00;86.90
50907;DHT22;36882;27.680;85.304;2022-10-13T06:30:32;27.00;87.60
50907;DHT22;36882;27.680;85.304;2022-10-13T06:33:03;26.90;86.10
50907;DHT22;36882;27.680;85.304;2022-10-13T06:35:33;26.90;86.10
50907;DHT22;36882;27.680;85.304;2022-10-13T06:38:05;26.90;86.60
50907;DHT22;36882;27.680;85.304;2022-10-13T06:40:35;27.10;84.20
50907;DHT22;36882;27.680;85.304;2022-10-13T06:43:06;27.10;85.00
50907;DHT22;36882;27.680;85.304;2022-10-13T06:45:36;27.10;86.20
50907;DHT22;36882;27.680;85.304;2022-10-13T06:48:07;27.10;84.40
50907;DHT22;36882;27.680;85.304;2022-10-13T06:50:38;27.20;86.00
50907;DHT22;36882;27.680;85.304;2022-10-13T06:53:09;27.40;84.80
50907;DHT22;36882;27.680;85.304;2022-10-13T06:55:43;27.40;82.80
50907;DHT22;36882;27.680;85.304;2022-10-13T06:58:18;27.80;82.30
50907;DHT22;36882;27.680;85.304;2022-10-13T07:00:49;27.70;81.90
50907;DHT22;36882;27.680;85.304;2022-10-13T07:03:20;27.80;81.90
50907;DHT22;36882;27.680;85.304;2022-10-13T07:05:50;27.80;81.30
50907;DHT22;36882;27.680;85.304;2022-10-13T07:08:21;27.90;81.60
50907;DHT22;36882;27.680;85.304;2022-10-13T07:10:51;27.90;84.30
50907;DHT22;36882;27.680;85.304;2022-10-13T07:13:22;27.60;87.20
50907;DHT22;36882;27.680;85.304;2022-10-13T07:15:52;27.50;89.30
50907;DHT22;36882;27.680;85.304;2022-10-13T07:18:22;27.40;88.90
50907;DHT22;36882;27.680;85.304;2022-10-13T07:20:53;27.30;90.20
50907;DHT22;36882;27.680;85.304;2022-10-13T07:23:23;27.20;90.30
50907;DHT22;36882;27.680;85.304;2022-10-13T07:25:54;27.40;90.60
50907;DHT22;36882;27.680;85.304;2022-10-13T07:28:26;27.40;90.00
50907;DHT22;36882;27.680;85.304;2022-10-13T07:30:56;27.30;88.90
50907;DHT22;36882;27.680;85.304;2022-10-13T07:33:27;27.40;89.20
50907;DHT22;36882;27.680;85.304;2022-10-13T07:35:58;27.40;87.80
50907;DHT22;36882;27.680;85.304;2022-10-13T07:38:29;27.50;88.80
50907;DHT22;36882;27.680;85.304;2022-10-13T07:41:02;27.60;89.00
50907;DHT22;36882;27.680;85.304;2022-10-13T07:43:32;27.70;89.60
50907;DHT22;36882;27.680;85.304;2022-10-13T07:46:04;27.80;88.70
50907;DHT22;36882;27.680;85.304;2022-10-13T07:48:35;27.90;88.70
50907;DHT22;36882;27.680;85.304;2022-10-13T07:51:07;28.00;87.40
50907;DHT22;36882;27.680;85.304;2022-10-13T07:53:39;28.00;87.80
50907;DHT22;36882;27.680;85.304;2022-10-13T07:56:13;28.00;87.60
50907;DHT22;36882;27.680;85.304;2022-10-13T07:58:45;27.90;86.90
50907;DHT22;36882;27.680;85.304;2022-10-13T08:01:16;27.90;86.40
50907;DHT22;36882;27.680;85.304;2022-10-13T08:03:47;28.00;87.90
50907;DHT22;36882;27.680;85.304;2022-10-13T08:06:17;28.20;88.80
50907;DHT22;36882;27.680;85.304;2022-10-13T08:08:48;28.30;88.30
50907;DHT22;36882;27.680;85.304;2022-10-13T08:11:19;28.40;87.50
50907;DHT22;36882;27.680;85.304;2022-10-13T08:13:50;28.30;86.80
50907;DHT22;36882;27.680;85.304;2022-10-13T08:16:22;28.20;87.90
50907;DHT22;36882;27.680;85.304;2022-10-13T08:18:53;28.10;87.70
50907;DHT22;36882;27.680;85.304;2022-10-13T08:21:25;28.00;88.40
50907;DHT22;36882;27.680;85.304;2022-10-13T08:24:16;27.80;88.60
50907;DHT22;36882;27.680;85.304;2022-10-13T08:26:48;27.60;89.60
50907;DHT22;36882;27.680;85.304;2022-10-13T08:29:19;27.60;90.10
50907;DHT22;36882;27.680;85.304;2022-10-13T08:31:52;27.70;89.80
50907;DHT22;36882;27.680;85.304;2022-10-13T08:34:23;27.80;89.20
50907;DHT22;36882;27.680;85.304;2022-10-13T08:36:54;27.80;88.50
50907;DHT22;36882;27.680;85.304;2022-10-13T08:39:25;27.80;89.20
50907;DHT22;36882;27.680;85.304;2022-10-13T08:41:57;27.70;89.20
50907;DHT22;36882;27.680;85.304;2022-10-13T08:44:39;27.70;88.60
50907;DHT22;36882;27.680;85.304;2022-10-13T08:47:43;27.60;89.00
50907;DHT22;36882;27.680;85.304;2022-10-13T08:50:19;27.60;89.90
50907;DHT22;36882;27.680;85.304;2022-10-13T08:52:59;27.50;89.90
50907;DHT22;36882;27.680;85.304;2022-10-13T08:55:44;27.50;90.00
50907;DHT22;36882;27.680;85.304;2022-10-13T08:58:23;27.50;89.60
50907;DHT22;36882;27.680;85.304;2022-10-13T09:01:05;27.50;90.10
50907;DHT22;36882;27.680;85.304;2022-10-13T09:03:51;27.50;89.90
50907;DHT22;36882;27.680;85.304;2022-10-13T09:06:41;27.20;90.20
50907;DHT22;36882;27.680;85.304;2022-10-13T09:09:14;27.10;90.50
50907;DHT22;36882;27.680;85.304;2022-10-13T09:11:46;27.20;89.80
50907;DHT22;36882;27.680;85.304;2022-10-13T09:14:24;27.10;89.70
50907;DHT22;36882;27.680;85.304;2022-10-13T09:17:11;27.00;90.10
50907;DHT22;36882;27.680;85.304;2022-10-13T09:19:42;26.90;89.60
50907;DHT22;36882;27.680;85.304;2022-10-13T09:22:32;26.90;89.90
50907;DHT22;36882;27.680;85.304;2022-10-13T09:25:21;27.00;90.30
50907;DHT22;36882;27.680;85.304;2022-10-13T09:27:54;26.90;89.90
50907;DHT22;36882;27.680;85.304;2022-10-13T09:30:39;27.00;89.70
50907;DHT22;36882;27.680;85.304;2022-10-13T09:33:19;27.00;89.20
50907;DHT22;36882;27.680;85.304;2022-10-13T09:36:09;27.10;88.90
50907;DHT22;36882;27.680;85.304;2022-10-13T09:38:42;27.10;89.60
50907;DHT22;36882;27.680;85.304;2022-10-13T09:41:19;27.20;88.60
50907;DHT22;36882;27.680;85.304;2022-10-13T09:43:59;27.20;89.40
50907;DHT22;36882;27.680;85.304;2022-10-13T09:49:38;27.20;90.50
50907;DHT22;36882;27.680;85.304;2022-10-13T09:52:17;27.30;90.30
50907;DHT22;36882;27.680;85.304;2022-10-13T09:54:52;27.30;90.10
50907;DHT22;36882;27.680;85.304;2022-10-13T09:57:47;27.40;90.10
50907;DHT22;36882;27.680;85.304;2022-10-13T10:00:26;27.50;88.00
50907;DHT22;36882;27.680;85.304;2022-10-13T10:06:06;27.10;90.70
50907;DHT22;36882;27.680;85.304;2022-10-13T10:08:57;27.10;90.20
50907;DHT22;36882;27.680;85.304;2022-10-13T10:11:44;27.10;89.90
50907;DHT22;36882;27.680;85.304;2022-10-13T10:14:27;27.10;90.40
50907;DHT22;36882;27.680;85.304;2022-10-13T10:26:01;27.20;90.50
50907;DHT22;36882;27.680;85.304;2022-10-13T10:29:03;27.10;90.10
50907;DHT22;36882;27.680;85.304;2022-10-13T10:31:48;27.00;90.60
50907;DHT22;36882;27.680;85.304;2022-10-13T10:34:40;27.10;90.90
50907;DHT22;36882;27.680;85.304;2022-10-13T10:37:35;27.10;90.60
50907;DHT22;36882;27.680;85.304;2022-10-13T10:46:24;26.90;91.20
50907;DHT22;36882;27.680;85.304;2022-10-13T10:49:11;26.80;91.40
50907;DHT22;36882;27.680;85.304;2022-10-13T10:51:44;26.80;91.40
50907;DHT22;36882;27.680;85.304;2022-10-13T10:54:25;26.70;91.60
50907;DHT22;36882;27.680;85.304;2022-10-13T10:57:05;26.70;91.20
50907;DHT22;36882;27.680;85.304;2022-10-13T11:06:04;26.40;91.60
50907;DHT22;36882;27.680;85.304;2022-10-13T11:08:44;26.20;91.50
50907;DHT22;36882;27.680;85.304;2022-10-13T11:11:31;26.20;91.80
50907;DHT22;36882;27.680;85.304;2022-10-13T11:14:26;26.00;91.60
50907;DHT22;36882;27.680;85.304;2022-10-13T11:17:10;26.00;91.50
50907;DHT22;36882;27.680;85.304;2022-10-13T11:19:46;26.00;91.30
50907;DHT22;36882;27.680;85.304;2022-10-13T11:22:20;25.90;91.10
50907;DHT22;36882;27.680;85.304;2022-10-13T11:24:57;25.80;91.20
50907;DHT22;36882;27.680;85.304;2022-10-13T11:27:38;25.80;91.40
50907;DHT22;36882;27.680;85.304;2022-10-13T11:45:45;25.20;92.30
50907;DHT22;36882;27.680;85.304;2022-10-13T11:48:35;25.10;92.40
50907;DHT22;36882;27.680;85.304;2022-10-13T11:51:16;25.00;92.60
50907;DHT22;36882;27.680;85.304;2022-10-13T11:54:18;24.90;92.40
50907;DHT22;36882;27.680;85.304;2022-10-13T11:56:53;24.70;92.80
50907;DHT22;36882;27.680;85.304;2022-10-13T11:59:27;24.70;93.00
50907;DHT22;36882;27.680;85.304;2022-10-13T12:02:12;24.60;92.80
50907;DHT22;36882;27.680;85.304;2022-10-13T12:05:02;24.50;92.60
50907;DHT22;36882;27.680;85.304;2022-10-13T12:07:36;24.50;93.10
50907;DHT22;36882;27.680;85.304;2022-10-13T12:10:13;24.40;93.20
50907;DHT22;36882;27.680;85.304;2022-10-13T12:12:48;24.40;93.40
50907;DHT22;36882;27.680;85.304;2022-10-13T12:15:30;24.40;93.50
50907;DHT22;36882;27.680;85.304;2022-10-13T12:18:01;24.40;93.60
50907;DHT22;36882;27.680;85.304;2022-10-13T12:20:32;24.30;93.60
50907;DHT22;36882;27.680;85.304;2022-10-13T12:23:02;24.30;93.80
50907;DHT22;36882;27.680;85.304;2022-10-13T12:25:32;24.30;94.00
50907;DHT22;36882;27.680;85.304;2022-10-13T12:28:02;24.30;94.20
50907;DHT22;36882;27.680;85.304;2022-10-13T12:30:33;24.20;94.40
50907;DHT22;36882;27.680;85.304;2022-10-13T12:33:33;24.20;94.60
50907;DHT22;36882;27.680;85.304;2022-10-13T12:36:17;24.20;94.40
50907;DHT22;36882;27.680;85.304;2022-10-13T12:38:50;24.20;94.60
50907;DHT22;36882;27.680;85.304;2022-10-13T12:41:28;24.10;94.60
50907;DHT22;36882;27.680;85.304;2022-10-13T12:43:58;24.10;94.50
50907;DHT22;36882;27.680;85.304;2022-10-13T12:46:48;24.10;94.40
50907;DHT22;36882;27.680;85.304;2022-10-13T12:49:27;24.00;94.60
50907;DHT22;36882;27.680;85.304;2022-10-13T12:52:12;24.10;94.20
50907;DHT22;36882;27.680;85.304;2022-10-13T12:54:53;24.00;94.20
50907;DHT22;36882;27.680;85.304;2022-10-13T12:57:31;24.00;94.50
50907;DHT22;36882;27.680;85.304;2022-10-13T13:00:21;23.90;94.60
50907;DHT22;36882;27.680;85.304;2022-10-13T13:03:03;23.90;95.00
50907;DHT22;36882;27.680;85.304;2022-10-13T13:05:40;23.80;94.80
50907;DHT22;36882;27.680;85.304;2022-10-13T13:08:28;23.80;94.90
50907;DHT22;36882;27.680;85.304;2022-10-13T13:11:04;23.80;95.00
50907;DHT22;36882;27.680;85.304;2022-10-13T13:13:35;23.80;95.30
50907;DHT22;36882;27.680;85.304;2022-10-13T13:16:17;23.80;95.20
50907;DHT22;36882;27.680;85.304;2022-10-13T13:18:49;23.70;95.20
50907;DHT22;36882;27.680;85.304;2022-10-13T13:21:19;23.70;95.20
50907;DHT22;36882;27.680;85.304;2022-10-13T13:23:50;23.70;95.20
50907;DHT22;36882;27.680;85.304;2022-10-13T13:26:22;23.70;95.40
50907;DHT22;36882;27.680;85.304;2022-10-13T13:28:55;23.60;95.20
50907;DHT22;36882;27.680;85.304;2022-10-13T13:31:25;23.70;95.00
50907;DHT22;36882;27.680;85.304;2022-10-13T13:33:55;23.70;95.20
50907;DHT22;36882;27.680;85.304;2022-10-13T13:36:24;23.70;95.30
50907;DHT22;36882;27.680;85.304;2022-10-13T13:38:55;23.60;95.80
50907;DHT22;36882;27.680;85.304;2022-10-13T13:41:24;23.50;95.60
50907;DHT22;36882;27.680;85.304;2022-10-13T13:43:58;23.60;95.80
50907;DHT22;36882;27.680;85.304;2022-10-13T13:46:31;23.60;95.20
50907;DHT22;36882;27.680;85.304;2022-10-13T13:49:00;23.60;95.10
50907;DHT22;36882;27.680;85.304;2022-10-13T13:51:30;23.50;95.20
50907;DHT22;36882;27.680;85.304;2022-10-13T13:54:00;23.50;95.50
50907;DHT22;36882;27.680;85.304;2022-10-13T13:56:30;23.50;95.30
50907;DHT22;36882;27.680;85.304;2022-10-13T13:59:00;23.50;95.40
50907;DHT22;36882;27.680;85.304;2022-10-13T14:01:30;23.50;95.50
50907;DHT22;36882;27.680;85.304;2022-10-13T14:04:00;23.50;95.50
50907;DHT22;36882;27.680;85.304;2022-10-13T14:06:31;23.40;95.50
50907;DHT22;36882;27.680;85.304;2022-10-13T14:09:00;23.40;95.60
50907;DHT22;36882;27.680;85.304;2022-10-13T14:11:32;23.40;95.80
50907;DHT22;36882;27.680;85.304;2022-10-13T14:14:02;23.40;95.70
50907;DHT22;36882;27.680;85.304;2022-10-13T14:16:31;23.40;95.80
50907;DHT22;36882;27.680;85.304;2022-10-13T14:19:02;23.40;95.70
50907;DHT22;36882;27.680;85.304;2022-10-13T14:21:31;23.30;95.80
50907;DHT22;36882;27.680;85.304;2022-10-13T14:24:02;23.30;95.60
50907;DHT22;36882;27.680;85.304;2022-10-13T14:26:32;23.30;95.80
50907;DHT22;36882;27.680;85.304;2022-10-13T14:29:02;23.30;95.80
50907;DHT22;36882;27.680;85.304;2022-10-13T14:31:32;23.30;95.90
50907;DHT22;36882;27.680;85.304;2022-10-13T14:34:02;23.30;95.90
50907;DHT22;36882;27.680;85.304;2022-10-13T14:36:31;23.20;95.60
50907;DHT22;36882;27.680;85.304;2022-10-13T14:39:03;23.30;95.60
50907;DHT22;36882;27.680;85.304;2022-10-13T14:41:33;23.30;95.60
50907;DHT22;36882;27.680;85.304;2022-10-13T14:44:04;23.20;95.60
50907;DHT22;36882;27.680;85.304;2022-10-13T14:46:34;23.20;95.70
50907;DHT22;36882;27.680;85.304;2022-10-13T14:49:04;23.20;95.80
50907;DHT22;36882;27.680;85.304;2022-10-13T14:51:34;23.20;95.70
50907;DHT22;36882;27.680;85.304;2022-10-13T14:54:04;23.10;95.90
50907;DHT22;36882;27.680;85.304;2022-10-13T14:56:34;23.20;95.90
50907;DHT22;36882;27.680;85.304;2022-10-13T14:59:06;23.10;96.00
50907;DHT22;36882;27.680;85.304;2022-10-13T15:01:38;23.20;96.00
50907;DHT22;36882;27.680;85.304;2022-10-13T15:04:09;23.20;96.00
50907;DHT22;36882;27.680;85.304;2022-10-13T15:06:41;22.70;95.80
50907;DHT22;36882;27.680;85.304;2022-10-13T15:09:11;23.20;96.00
50907;DHT22;36882;27.680;85.304;2022-10-13T15:11:42;23.10;96.00
50907;DHT22;36882;27.680;85.304;2022-10-13T15:14:14;23.20;96.00
50907;DHT22;36882;27.680;85.304;2022-10-13T15:16:44;23.20;96.10
50907;DHT22;36882;27.680;85.304;2022-10-13T15:19:14;23.20;96.10
50907;DHT22;36882;27.680;85.304;2022-10-13T15:21:43;23.20;96.30
50907;DHT22;36882;27.680;85.304;2022-10-13T15:24:13;23.10;96.50
50907;DHT22;36882;27.680;85.304;2022-10-13T15:26:43;23.10;96.50
50907;DHT22;36882;27.680;85.304;2022-10-13T15:29:13;23.10;96.60
50907;DHT22;36882;27.680;85.304;2022-10-13T15:31:44;23.10;96.70
50907;DHT22;36882;27.680;85.304;2022-10-13T15:34:13;22.90;96.90
50907;DHT22;36882;27.680;85.304;2022-10-13T15:36:44;22.90;97.00
50907;DHT22;36882;27.680;85.304;2022-10-13T15:39:14;22.90;97.00
50907;DHT22;36882;27.680;85.304;2022-10-13T15:41:44;22.90;97.10
50907;DHT22;36882;27.680;85.304;2022-10-13T15:44:14;22.80;97.20
50907;DHT22;36882;27.680;85.304;2022-10-13T15:46:47;22.80;97.20
50907;DHT22;36882;27.680;85.304;2022-10-13T15:49:35;22.90;97.10
50907;DHT22;36882;27.680;85.304;2022-10-13T15:52:05;22.90;97.00
50907;DHT22;36882;27.680;85.304;2022-10-13T15:54:35;22.90;96.80
50907;DHT22;36882;27.680;85.304;2022-10-13T15:57:05;22.80;97.00
50907;DHT22;36882;27.680;85.304;2022-10-13T15:59:36;22.90;97.00
50907;DHT22;36882;27.680;85.304;2022-10-13T16:02:06;22.90;97.00
50907;DHT22;36882;27.680;85.304;2022-10-13T16:04:35;22.90;97.20
50907;DHT22;36882;27.680;85.304;2022-10-13T16:07:05;22.90;97.10
50907;DHT22;36882;27.680;85.304;2022-10-13T16:09:35;22.90;96.90
50907;DHT22;36882;27.680;85.304;2022-10-13T16:12:08;22.90;97.00
50907;DHT22;36882;27.680;85.304;2022-10-13T16:14:40;22.90;97.10
50907;DHT22;36882;27.680;85.304;2022-10-13T16:17:10;22.90;97.20
50907;DHT22;36882;27.680;85.304;2022-10-13T16:19:40;22.80;97.10
50907;DHT22;36882;27.680;85.304;2022-10-13T16:22:10;22.90;97.00
50907;DHT22;36882;27.680;85.304;2022-10-13T16:24:40;22.80;96.90
50907;DHT22;36882;27.680;85.304;2022-10-13T16:27:09;22.80;97.00
50907;DHT22;36882;27.680;85.304;2022-10-13T16:29:39;22.80;97.00
50907;DHT22;36882;27.680;85.304;2022-10-13T16:32:10;22.80;96.90
50907;DHT22;36882;27.680;85.304;2022-10-13T16:34:40;22.80;97.10
50907;DHT22;36882;27.680;85.304;2022-10-13T16:37:09;22.80;96.90
50907;DHT22;36882;27.680;85.304;2022-10-13T16:39:39;22.80;97.00
50907;DHT22;36882;27.680;85.304;2022-10-13T16:42:15;22.70;97.20
50907;DHT22;36882;27.680;85.304;2022-10-13T16:44:45;22.70;97.20
50907;DHT22;36882;27.680;85.304;2022-10-13T16:47:15;22.60;97.30
50907;DHT22;36882;27.680;85.304;2022-10-13T16:49:45;22.60;97.30
50907;DHT22;36882;27.680;85.304;2022-10-13T16:52:15;22.50;97.30
50907;DHT22;36882;27.680;85.304;2022-10-13T16:54:45;22.50;97.30
50907;DHT22;36882;27.680;85.304;2022-10-13T16:57:15;22.60;97.30
50907;DHT22;36882;27.680;85.304;2022-10-13T16:59:46;22.60;97.40
50907;DHT22;36882;27.680;85.304;2022-10-13T17:02:15;22.60;97.30